createdAt,value
2023-03-31T00:02:02.709Z,7.53
2023-03-31T00:04:32.059Z,6.28
2023-03-31T00:06:59.526Z,4.00
2023-03-31T00:09:30.064Z,4.45
2023-03-31T00:11:57.129Z,4.97
2023-03-31T00:14:24.302Z,3.92
2023-03-31T00:16:51.506Z,4.63
2023-03-31T00:19:18.735Z,3.67
2023-03-31T00:21:46.645Z,2.80
2023-03-31T00:24:14.992Z,6.10
2023-03-31T00:26:42.052Z,3.28
2023-03-31T00:29:09.912Z,4.65
2023-03-31T00:31:38.794Z,4.00
2023-03-31T00:34:06.665Z,3.10
2023-03-31T00:36:36.508Z,4.90
2023-03-31T00:39:08.657Z,4.80
2023-03-31T00:41:37.610Z,3.08
2023-03-31T00:44:24.438Z,3.63
2023-03-31T00:46:52.517Z,4.35
2023-03-31T00:49:27.088Z,4.28
2023-03-31T00:51:56.056Z,3.92
2023-03-31T00:54:25.892Z,4.22
2023-03-31T00:56:55.581Z,3.75
2023-03-31T00:59:27.430Z,2.67
2023-03-31T01:01:54.794Z,5.60
2023-03-31T01:04:22.819Z,4.82
2023-03-31T01:06:57.303Z,6.97
2023-03-31T01:09:25.599Z,2.38
2023-03-31T01:11:52.741Z,3.92
2023-03-31T01:14:19.876Z,2.83
2023-03-31T01:16:47.084Z,2.58
2023-03-31T01:19:20.648Z,3.17
2023-03-31T01:22:00.335Z,3.85
2023-03-31T01:24:27.411Z,3.28
2023-03-31T01:26:57.741Z,2.70
2023-03-31T01:29:44.767Z,2.58
2023-03-31T01:32:12.027Z,7.00
2023-03-31T01:34:59.068Z,4.90
2023-03-31T01:37:47.061Z,3.67
2023-03-31T01:40:17.676Z,4.10
2023-03-31T01:42:55.299Z,3.42
2023-03-31T01:45:28.096Z,5.57
2023-03-31T01:47:59.122Z,2.78
2023-03-31T01:50:29.942Z,2.53
2023-03-31T01:53:04.798Z,3.88
2023-03-31T01:55:46.768Z,2.63
2023-03-31T01:58:17.112Z,2.22
2023-03-31T02:00:51.870Z,1.48
2023-03-31T02:03:22.572Z,2.70
2023-03-31T02:05:55.270Z,3.03
2023-03-31T02:08:28.129Z,3.53
2023-03-31T02:10:55.813Z,5.25
2023-03-31T02:13:24.125Z,6.60
2023-03-31T02:15:53.870Z,2.28
2023-03-31T02:18:22.110Z,6.22
2023-03-31T02:20:50.740Z,2.05
2023-03-31T02:23:20.187Z,4.68
2023-03-31T02:25:50.418Z,4.55
2023-03-31T02:28:21.577Z,2.08
2023-03-31T02:30:52.408Z,2.08
2023-03-31T02:33:19.241Z,3.25
2023-03-31T02:35:46.463Z,4.68
2023-03-31T02:38:14.491Z,5.60
2023-03-31T02:40:41.539Z,5.20
2023-03-31T02:43:08.791Z,2.47
2023-03-31T02:45:39.338Z,2.53
2023-03-31T02:48:07.685Z,7.60
2023-03-31T02:50:41.344Z,4.07
2023-03-31T02:53:13.225Z,7.22
2023-03-31T02:56:09.354Z,2.75
2023-03-31T02:58:57.583Z,2.95
2023-03-31T03:01:33.057Z,4.32
2023-03-31T03:04:39.571Z,4.95
2023-03-31T03:07:22.730Z,6.40
2023-03-31T03:09:50.894Z,3.10
2023-03-31T03:12:40.713Z,4.75
2023-03-31T03:15:07.961Z,3.13
2023-03-31T03:17:37.286Z,4.65
2023-03-31T03:20:08.422Z,4.75
2023-03-31T03:22:37.686Z,4.38
2023-03-31T03:25:05.842Z,3.67
2023-03-31T03:27:32.905Z,6.85
2023-03-31T03:30:00.056Z,5.47
2023-03-31T03:32:27.169Z,3.65
2023-03-31T03:34:54.250Z,4.85
2023-03-31T03:37:21.332Z,6.05
2023-03-31T03:39:48.552Z,4.65
2023-03-31T03:42:15.698Z,4.07
2023-03-31T03:44:42.788Z,5.15
2023-03-31T03:47:09.844Z,5.68
2023-03-31T03:49:36.953Z,4.00
2023-03-31T03:52:04.175Z,3.13
2023-03-31T03:54:31.247Z,5.47
2023-03-31T03:56:58.381Z,6.30
2023-03-31T03:59:25.622Z,3.25
2023-03-31T04:01:52.821Z,2.28
2023-03-31T04:04:20.050Z,7.97
2023-03-31T04:06:47.100Z,3.78
2023-03-31T04:09:14.192Z,4.30
2023-03-31T04:11:40.810Z,6.55
2023-03-31T04:14:08.138Z,3.58
2023-03-31T04:16:35.225Z,3.38
2023-03-31T04:19:03.780Z,5.13
2023-03-31T04:21:35.162Z,4.40
2023-03-31T04:24:04.423Z,4.55
2023-03-31T04:26:43.142Z,1.73
2023-03-31T04:29:13.616Z,2.88
2023-03-31T04:31:43.318Z,4.75
2023-03-31T04:34:14.639Z,4.50
2023-03-31T04:36:47.155Z,4.93
2023-03-31T04:39:15.958Z,5.00
2023-03-31T04:41:43.104Z,5.03
2023-03-31T04:44:10.269Z,3.80
2023-03-31T04:46:37.472Z,4.97
2023-03-31T04:49:05.751Z,6.32
2023-03-31T04:51:32.922Z,4.93
2023-03-31T04:54:00.126Z,3.90
2023-03-31T04:56:27.333Z,4.00
2023-03-31T04:58:54.658Z,2.33
2023-03-31T05:01:21.793Z,7.93
2023-03-31T05:03:48.963Z,3.63
2023-03-31T05:06:16.635Z,2.90
2023-03-31T05:08:44.350Z,3.30
2023-03-31T05:11:11.759Z,6.93
2023-03-31T05:13:38.880Z,2.58
2023-03-31T05:16:09.149Z,3.22
2023-03-31T05:18:36.560Z,5.82
2023-03-31T05:21:21.172Z,4.00
2023-03-31T05:23:48.557Z,6.05
2023-03-31T05:26:15.522Z,3.15
2023-03-31T05:28:42.909Z,3.83
2023-03-31T05:31:11.105Z,2.58
2023-03-31T05:33:41.331Z,2.88
2023-03-31T05:36:10.689Z,5.80
2023-03-31T05:38:38.249Z,2.95
2023-03-31T05:41:06.429Z,4.43
2023-03-31T05:43:33.539Z,2.80
2023-03-31T05:46:00.713Z,4.13
2023-03-31T05:48:27.833Z,5.43
2023-03-31T05:51:02.287Z,6.57
2023-03-31T05:53:29.489Z,4.80
2023-03-31T05:55:59.798Z,6.00
2023-03-31T05:58:27.277Z,6.70
2023-03-31T06:01:02.462Z,3.10
2023-03-31T06:03:29.798Z,4.53
2023-03-31T06:05:56.872Z,4.57
2023-03-31T06:08:24.349Z,5.03
2023-03-31T06:10:52.054Z,3.42
2023-03-31T06:13:19.208Z,6.57
2023-03-31T06:15:57.297Z,6.57
2023-03-31T06:18:24.850Z,5.15
2023-03-31T06:20:52.727Z,3.15
2023-03-31T06:23:19.760Z,6.60
2023-03-31T06:25:51.307Z,5.13
2023-03-31T06:28:19.248Z,5.82
2023-03-31T06:30:46.352Z,4.25
2023-03-31T06:33:13.629Z,4.47
2023-03-31T06:35:41.482Z,4.68
2023-03-31T06:38:08.625Z,4.63
2023-03-31T06:40:36.355Z,2.65
2023-03-31T06:43:03.469Z,3.30
2023-03-31T06:45:32.193Z,7.03
2023-03-31T06:47:59.322Z,4.63
2023-03-31T06:50:26.387Z,8.73
2023-03-31T06:52:55.158Z,3.92
2023-03-31T06:55:22.265Z,5.35
2023-03-31T06:57:49.364Z,3.45
2023-03-31T07:00:16.876Z,6.65
2023-03-31T07:02:43.998Z,4.47
2023-03-31T07:05:14.189Z,5.75
2023-03-31T07:07:41.351Z,6.45
2023-03-31T07:10:08.724Z,5.63
2023-03-31T07:12:35.809Z,8.48
2023-03-31T07:15:02.951Z,5.55
2023-03-31T07:17:30.012Z,6.15
2023-03-31T07:19:57.787Z,6.00
2023-03-31T07:22:24.865Z,5.82
2023-03-31T07:24:51.965Z,3.65
2023-03-31T07:27:19.016Z,0.70
2023-03-31T07:29:46.132Z,0.30
2023-03-31T07:32:13.325Z,0.10
2023-03-31T07:34:41.579Z,0.50
2023-03-31T07:37:08.607Z,0.20
2023-03-31T07:39:37.292Z,0.20
2023-03-31T07:42:04.111Z,0.40
2023-03-31T07:44:33.242Z,0.30
2023-03-31T07:47:04.438Z,0.45
2023-03-31T07:49:32.238Z,1.58
2023-03-31T07:51:59.566Z,0.15
2023-03-31T07:54:26.743Z,0.30
2023-03-31T07:56:53.871Z,0.25
2023-03-31T07:59:21.888Z,0.13
2023-03-31T08:01:49.021Z,0.40
2023-03-31T08:04:16.264Z,0.20
2023-03-31T08:06:43.399Z,0.60
2023-03-31T08:09:10.574Z,3.33
2023-03-31T08:11:37.623Z,0.63
2023-03-31T08:14:04.666Z,0.68
2023-03-31T08:16:32.482Z,0.50
2023-03-31T08:18:59.553Z,0.20
2023-03-31T08:21:26.633Z,0.43
2023-03-31T08:23:54.747Z,1.70
2023-03-31T08:26:25.410Z,0.22
2023-03-31T08:28:52.926Z,0.63
2023-03-31T08:31:21.456Z,0.40
2023-03-31T08:33:48.574Z,0.10
2023-03-31T08:36:15.795Z,0.10
2023-03-31T08:38:46.015Z,0.20
2023-03-31T08:41:40.025Z,0.20
2023-03-31T08:44:11.113Z,0.40
2023-03-31T08:46:39.646Z,0.20
2023-03-31T08:49:06.983Z,0.32
2023-03-31T08:51:40.979Z,0.20
2023-03-31T08:54:38.399Z,1.50
2023-03-31T08:57:11.769Z,0.35
2023-03-31T08:59:40.975Z,0.57
2023-03-31T09:02:21.151Z,0.10
2023-03-31T09:04:51.434Z,0.60
2023-03-31T09:07:39.202Z,0.13
2023-03-31T09:10:23.318Z,0.63
2023-03-31T09:13:10.323Z,0.20
2023-03-31T09:15:46.409Z,1.38
2023-03-31T09:18:37.363Z,0.20
2023-03-31T09:21:08.073Z,0.60
2023-03-31T09:23:38.714Z,0.10
2023-03-31T09:26:06.237Z,0.10
2023-03-31T09:28:38.235Z,0.20
2023-03-31T09:31:13.662Z,0.40
2023-03-31T09:33:45.867Z,0.17
2023-03-31T09:36:19.363Z,0.30
2023-03-31T09:38:47.102Z,0.10
2023-03-31T09:41:15.975Z,0.10
2023-03-31T09:43:46.019Z,0.30
2023-03-31T09:46:17.511Z,0.90
2023-03-31T09:48:53.760Z,0.63
2023-03-31T09:51:27.120Z,0.60
2023-03-31T09:54:04.202Z,0.20
2023-03-31T09:56:34.754Z,0.10
2023-03-31T09:59:03.354Z,0.10
2023-03-31T10:01:32.494Z,0.17
2023-03-31T10:03:59.687Z,0.10
2023-03-31T10:06:26.966Z,0.10
2023-03-31T10:09:05.116Z,0.20
2023-03-31T10:11:32.257Z,0.17
2023-03-31T10:14:04.193Z,0.10
2023-03-31T10:16:53.397Z,0.10
2023-03-31T10:19:30.333Z,0.30
2023-03-31T10:21:58.553Z,0.10
2023-03-31T10:24:27.767Z,0.17
2023-03-31T10:26:57.136Z,0.10
2023-03-31T10:29:31.366Z,0.10
2023-03-31T10:32:05.362Z,0.17
2023-03-31T10:34:32.673Z,0.10
2023-03-31T10:36:59.841Z,0.15
2023-03-31T10:39:31.438Z,0.10
2023-03-31T10:41:58.624Z,0.10
2023-03-31T10:44:40.662Z,0.10
2023-03-31T10:47:19.936Z,0.10
2023-03-31T10:49:49.642Z,0.32
2023-03-31T10:52:22.238Z,0.30
2023-03-31T10:54:52.896Z,2.22
2023-03-31T10:57:26.497Z,0.40
2023-03-31T10:59:59.722Z,0.20
2023-03-31T11:02:42.712Z,0.50
2023-03-31T11:05:34.204Z,1.60
2023-03-31T11:08:30.429Z,2.53
2023-03-31T11:11:10.432Z,1.42
2023-03-31T11:13:58.028Z,0.70
2023-03-31T11:16:42.819Z,1.25
2023-03-31T11:19:23.265Z,1.13
2023-03-31T11:22:09.738Z,0.65
2023-03-31T11:24:39.717Z,0.75
2023-03-31T11:27:23.176Z,0.60
2023-03-31T11:30:02.205Z,1.45
2023-03-31T11:32:56.096Z,5.72
2023-03-31T11:35:44.218Z,0.10
2023-03-31T11:38:21.828Z,0.15
2023-03-31T11:41:14.388Z,0.10
2023-03-31T11:43:42.453Z,0.10
2023-03-31T11:46:09.687Z,0.03
2023-03-31T11:48:41.178Z,0.10
2023-03-31T11:51:16.237Z,0.10
2023-03-31T11:53:45.635Z,0.10
2023-03-31T11:56:13.435Z,0.13
2023-03-31T11:58:46.558Z,0.13
2023-03-31T12:01:17.997Z,0.90
2023-03-31T12:03:58.530Z,0.10
2023-03-31T12:06:29.224Z,0.10
2023-03-31T12:09:04.502Z,0.10
2023-03-31T12:11:36.298Z,0.10
2023-03-31T12:14:22.810Z,0.20
2023-03-31T12:17:02.129Z,0.10
2023-03-31T12:19:36.882Z,0.10
2023-03-31T12:22:25.766Z,0.20
2023-03-31T12:24:53.495Z,0.10
2023-03-31T12:27:30.086Z,0.10
2023-03-31T12:30:04.550Z,0.40
2023-03-31T12:32:38.179Z,0.10
2023-03-31T12:35:10.718Z,0.10
2023-03-31T12:37:59.991Z,0.10
2023-03-31T12:40:52.865Z,0.10
2023-03-31T12:43:20.979Z,0.10
2023-03-31T12:45:57.043Z,0.20
2023-03-31T12:48:49.661Z,0.10
2023-03-31T12:51:27.890Z,0.10
2023-03-31T12:54:00.598Z,0.10
2023-03-31T12:56:27.879Z,0.10
2023-03-31T12:58:55.029Z,0.10
2023-03-31T13:01:23.083Z,0.10
2023-03-31T13:04:10.350Z,0.10
2023-03-31T13:06:37.524Z,0.40
2023-03-31T13:09:11.239Z,0.10
2023-03-31T13:11:40.478Z,0.20
2023-03-31T13:14:24.309Z,0.10
2023-03-31T13:16:55.544Z,0.10
2023-03-31T13:19:32.827Z,0.10
2023-03-31T13:22:01.289Z,0.10
2023-03-31T13:24:29.366Z,0.10
2023-03-31T13:26:59.079Z,0.10
2023-03-31T13:29:43.489Z,0.20
2023-03-31T13:32:21.907Z,0.10
2023-03-31T13:35:26.390Z,0.17
2023-03-31T13:37:53.482Z,0.10
2023-03-31T13:40:40.799Z,0.10
2023-03-31T13:43:34.169Z,0.10
2023-03-31T13:46:15.026Z,0.10
2023-03-31T13:48:56.729Z,0.10
2023-03-31T13:51:26.772Z,0.10
2023-03-31T13:53:54.482Z,0.10
2023-03-31T13:56:51.325Z,0.15
2023-03-31T13:59:55.681Z,0.20
2023-03-31T14:02:25.684Z,0.10
2023-03-31T14:05:32.237Z,0.15
2023-03-31T14:08:03.911Z,0.35
2023-03-31T14:10:33.459Z,0.55
2023-03-31T14:13:18.762Z,0.22
2023-03-31T14:15:52.091Z,0.10
2023-03-31T14:18:26.477Z,0.10
2023-03-31T14:21:07.256Z,0.10
2023-03-31T14:23:49.788Z,0.10
2023-03-31T14:26:22.203Z,0.28
2023-03-31T14:28:49.281Z,0.10
2023-03-31T14:31:20.340Z,0.10
2023-03-31T14:33:55.424Z,0.80
2023-03-31T14:36:49.308Z,0.13
2023-03-31T14:39:22.198Z,0.80
2023-03-31T14:42:01.476Z,0.40
2023-03-31T14:44:29.016Z,0.25
2023-03-31T14:46:58.534Z,0.20
2023-03-31T14:49:28.026Z,0.32
2023-03-31T14:51:56.167Z,1.10
2023-03-31T14:54:23.339Z,2.30
2023-03-31T14:56:53.752Z,0.30
2023-03-31T14:59:23.418Z,1.23
2023-03-31T15:01:51.261Z,0.70
2023-03-31T15:04:25.896Z,1.65
2023-03-31T15:07:01.338Z,2.58
2023-03-31T15:09:29.936Z,7.65
2023-03-31T15:11:58.547Z,1.33
2023-03-31T15:14:31.241Z,2.50
2023-03-31T15:16:58.409Z,0.63
2023-03-31T15:19:28.441Z,1.00
2023-03-31T15:22:01.617Z,1.45
2023-03-31T15:24:29.268Z,1.85
2023-03-31T15:27:00.674Z,0.65
2023-03-31T15:29:35.105Z,1.67
2023-03-31T15:32:02.387Z,2.20
2023-03-31T15:34:33.200Z,2.20
2023-03-31T15:37:01.005Z,1.00
2023-03-31T15:39:30.898Z,1.27
2023-03-31T15:41:58.562Z,1.60
2023-03-31T15:44:46.255Z,2.20
2023-03-31T15:47:16.830Z,4.32
2023-03-31T15:49:52.538Z,2.30
2023-03-31T15:52:27.255Z,1.90
2023-03-31T15:54:54.040Z,1.83
2023-03-31T15:57:22.301Z,3.40
2023-03-31T16:02:24.848Z,1.30
2023-03-31T16:04:56.837Z,1.73
2023-03-31T16:07:29.066Z,1.52
2023-03-31T16:09:58.378Z,1.00
2023-03-31T16:12:30.601Z,2.25
2023-03-31T16:14:57.663Z,2.85
2023-03-31T16:17:37.271Z,1.08
2023-03-31T16:20:11.043Z,3.15
2023-03-31T16:22:42.497Z,2.42
2023-03-31T16:25:10.972Z,3.67
2023-03-31T16:27:40.874Z,3.08
2023-03-31T16:30:10.713Z,4.47
2023-03-31T16:32:37.886Z,1.42
2023-03-31T16:35:05.931Z,2.33
2023-03-31T16:37:33.332Z,1.42
2023-03-31T16:40:00.529Z,2.75
2023-03-31T16:42:27.909Z,3.65
2023-03-31T16:50:11.765Z,3.10
2023-03-31T16:52:39.591Z,1.48
2023-03-31T16:55:08.250Z,3.85
2023-03-31T16:57:34.947Z,2.55
2023-03-31T17:00:02.443Z,2.58
2023-03-31T17:02:29.821Z,1.58
2023-03-31T17:05:06.240Z,5.18
2023-03-31T17:07:39.474Z,2.90
2023-03-31T17:10:07.074Z,2.85
2023-03-31T17:12:34.212Z,3.95
2023-03-31T17:15:01.452Z,4.32
2023-03-31T17:17:29.732Z,3.47
2023-03-31T17:19:59.174Z,1.45
2023-03-31T17:22:26.495Z,5.32
2023-03-31T17:24:58.164Z,2.78
2023-03-31T17:27:26.092Z,2.10
2023-03-31T17:29:53.008Z,4.35
2023-03-31T17:32:20.126Z,2.65
2023-03-31T17:34:50.072Z,2.03
2023-03-31T17:37:18.437Z,2.85
2023-03-31T17:39:45.631Z,2.03
2023-03-31T17:42:13.402Z,2.20
2023-03-31T17:44:40.738Z,3.83
2023-03-31T17:47:08.217Z,3.60
2023-03-31T17:49:35.433Z,5.22
2023-03-31T17:52:02.521Z,3.33
2023-03-31T17:54:29.551Z,4.03
2023-03-31T17:56:56.665Z,4.80
2023-03-31T17:59:24.160Z,2.13
2023-03-31T18:01:51.309Z,1.73
2023-03-31T18:04:18.778Z,3.42
2023-03-31T18:06:47.897Z,1.98
2023-03-31T18:09:15.561Z,1.30
2023-03-31T18:11:42.660Z,2.15
2023-03-31T18:14:09.802Z,1.20
2023-03-31T18:16:37.182Z,1.98
2023-03-31T18:19:04.389Z,1.55
2023-03-31T18:21:31.468Z,3.00
2023-03-31T18:23:58.579Z,2.60
2023-03-31T18:26:27.116Z,1.63
2023-03-31T18:28:54.373Z,2.30
2023-03-31T18:31:22.264Z,1.98
2023-03-31T18:33:49.522Z,2.00
2023-03-31T18:36:19.709Z,3.28
2023-03-31T18:38:47.465Z,3.45
2023-03-31T18:41:14.896Z,4.18
2023-03-31T18:43:42.302Z,1.80
2023-03-31T18:46:10.757Z,3.63
2023-03-31T18:48:38.457Z,1.77
2023-03-31T18:51:05.633Z,1.42
2023-03-31T18:53:32.829Z,1.27
2023-03-31T18:56:00.304Z,1.90
2023-03-31T18:58:29.235Z,3.25
2023-03-31T19:00:57.388Z,2.60
2023-03-31T19:03:26.513Z,2.53
2023-03-31T19:06:00.721Z,1.08
2023-03-31T19:08:27.830Z,1.63
2023-03-31T19:11:04.718Z,3.20
2023-03-31T19:13:31.963Z,1.20
2023-03-31T19:15:58.572Z,4.43
2023-03-31T19:18:27.637Z,2.28
2023-03-31T19:20:55.110Z,1.50
2023-03-31T19:23:22.198Z,3.22
2023-03-31T19:25:53.516Z,1.15
2023-03-31T19:28:21.200Z,2.42
2023-03-31T19:30:49.626Z,1.25
2023-03-31T19:33:16.825Z,3.67
2023-03-31T19:35:45.502Z,2.60
2023-03-31T19:38:13.197Z,2.10
2023-03-31T19:40:41.341Z,2.60
2023-03-31T19:43:19.356Z,1.55
2023-03-31T19:45:46.774Z,0.60
2023-03-31T19:48:13.916Z,1.73
2023-03-31T19:50:41.169Z,0.90
2023-03-31T19:53:08.252Z,1.67
2023-03-31T19:55:37.457Z,1.25
2023-03-31T19:58:04.664Z,0.95
2023-03-31T20:00:31.794Z,1.20
2023-03-31T20:03:00.195Z,2.60
2023-03-31T20:05:27.474Z,2.35
2023-03-31T20:07:54.721Z,2.67
2023-03-31T20:10:21.945Z,1.25
2023-03-31T20:12:51.598Z,1.20
2023-03-31T20:15:18.860Z,1.25
2023-03-31T20:17:46.544Z,0.88
2023-03-31T20:20:13.731Z,1.38
2023-03-31T20:22:41.365Z,0.93
2023-03-31T20:25:08.748Z,1.98
2023-03-31T20:27:36.178Z,0.98
2023-03-31T20:30:03.338Z,1.83
2023-03-31T20:32:30.418Z,0.63
2023-03-31T20:34:57.947Z,0.85
2023-03-31T20:37:25.084Z,0.93
2023-03-31T20:39:52.306Z,1.88
2023-03-31T20:42:19.422Z,0.93
2023-03-31T20:44:46.625Z,3.53
2023-03-31T20:47:14.421Z,0.75
2023-03-31T20:49:41.575Z,1.77
2023-03-31T20:52:08.711Z,1.83
2023-03-31T20:54:35.968Z,1.80
2023-03-31T20:57:05.795Z,1.77
2023-03-31T20:59:33.110Z,3.17
2023-03-31T21:02:00.888Z,4.38
2023-03-31T21:04:28.401Z,1.52
2023-03-31T21:06:55.743Z,2.03
2023-03-31T21:09:23.885Z,2.17
2023-03-31T21:11:51.827Z,2.08
2023-03-31T21:14:18.845Z,3.67
2023-03-31T21:16:46.076Z,2.20
2023-03-31T21:19:13.270Z,0.98
2023-03-31T21:21:41.269Z,3.70
2023-03-31T21:24:09.128Z,1.10
2023-03-31T21:26:36.244Z,2.10
2023-03-31T21:29:03.246Z,2.50
2023-03-31T21:31:30.913Z,3.00
2023-03-31T21:33:58.834Z,3.20
2023-03-31T21:36:26.722Z,2.33
2023-03-31T21:38:54.449Z,1.75
2023-03-31T21:41:25.253Z,1.98
2023-03-31T21:43:52.320Z,2.58
2023-03-31T21:46:20.622Z,0.60
2023-03-31T21:48:48.182Z,3.50
2023-03-31T21:51:15.493Z,1.85
2023-03-31T21:53:42.595Z,0.85
2023-03-31T21:56:09.684Z,1.15
2023-03-31T21:58:36.733Z,2.28
2023-03-31T22:01:04.622Z,1.23
2023-03-31T22:03:34.365Z,1.52
2023-03-31T22:06:03.517Z,2.42
2023-03-31T22:08:31.473Z,1.42
2023-03-31T22:11:00.102Z,2.47
2023-03-31T22:13:27.935Z,1.27
2023-03-31T22:15:56.170Z,0.80
2023-03-31T22:18:23.392Z,1.70
2023-03-31T22:20:51.124Z,0.57
2023-03-31T22:23:20.514Z,0.73
2023-03-31T22:25:47.867Z,1.00
2023-03-31T22:28:16.256Z,0.88
2023-03-31T22:30:43.978Z,0.82
2023-03-31T22:33:11.298Z,0.57
2023-03-31T22:35:38.494Z,1.30
2023-03-31T22:38:06.596Z,0.40
2023-03-31T22:40:34.630Z,0.60
2023-03-31T22:43:01.515Z,1.08
2023-03-31T22:45:28.720Z,0.68
2023-03-31T22:47:56.560Z,1.33
2023-03-31T22:50:23.814Z,1.27
2023-03-31T22:52:50.888Z,1.92
2023-03-31T22:55:17.622Z,1.13
2023-03-31T22:57:44.942Z,0.60
2023-03-31T23:00:12.772Z,1.48
2023-03-31T23:02:39.933Z,3.17
2023-03-31T23:05:07.702Z,1.63
2023-03-31T23:07:34.915Z,1.23
2023-03-31T23:10:02.051Z,2.65
2023-03-31T23:12:29.109Z,2.33
2023-03-31T23:14:56.376Z,2.10
2023-03-31T23:17:23.504Z,2.50
2023-03-31T23:19:51.156Z,4.45
2023-03-31T23:22:18.872Z,2.90
2023-03-31T23:24:46.469Z,0.93
2023-03-31T23:27:13.545Z,1.17
2023-03-31T23:29:41.337Z,2.40
2023-03-31T23:32:08.475Z,2.17
2023-03-31T23:34:35.285Z,1.45
2023-03-31T23:37:01.999Z,1.75
2023-03-31T23:39:28.758Z,1.50
2023-03-31T23:41:55.881Z,2.05
2023-03-31T23:44:23.240Z,1.15
2023-03-31T23:46:49.897Z,3.88
2023-03-31T23:49:16.944Z,2.70
2023-03-31T23:51:44.140Z,2.33
2023-03-31T23:54:11.540Z,3.17
2023-03-31T23:56:38.748Z,4.60
2023-03-31T23:59:05.845Z,3.97
